createdAt,value
2022-10-08T04:20:16.430Z,98788.22
2022-10-08T04:23:26.266Z,98786.66
2022-10-08T04:40:54.086Z,98779.50
2022-10-08T04:43:47.531Z,98785.66
2022-10-08T04:49:14.544Z,98794.53
2022-10-08T04:56:47.010Z,98785.84
2022-10-08T04:58:24.630Z,98781.31
2022-10-08T04:59:35.544Z,98783.00
2022-10-08T05:01:10.164Z,98783.75
2022-10-08T05:02:18.787Z,98781.91
2022-10-08T05:03:32.561Z,98783.50
2022-10-08T05:04:53.605Z,98787.66
2022-10-08T05:05:58.410Z,98786.66
2022-10-08T05:07:05.573Z,98783.88
2022-10-08T05:08:33.988Z,98784.66
2022-10-08T05:09:46.260Z,98789.91
2022-10-08T05:11:32.540Z,98781.97
2022-10-08T05:12:42.940Z,98786.22
2022-10-08T05:16:12.809Z,98783.38
2022-10-08T05:16:37.964Z,98790.16
2022-10-08T05:18:13.779Z,98782.22
2022-10-08T05:23:10.999Z,98784.03
2022-10-08T05:24:56.162Z,98776.84
2022-10-08T05:27:00.940Z,98767.63
2022-10-08T05:29:58.102Z,98781.53
2022-10-08T05:32:58.827Z,98775.66
2022-10-08T05:35:36.950Z,98778.06
2022-10-08T05:38:13.394Z,98778.25
2022-10-08T05:40:23.539Z,98785.38
2022-10-08T05:46:00.141Z,98797.16
2022-10-08T05:48:06.848Z,98792.44
2022-10-08T05:49:21.443Z,98790.38
2022-10-08T05:51:02.707Z,98798.00
2022-10-08T05:52:15.295Z,98802.34
2022-10-08T05:55:37.501Z,98804.06
2022-10-08T05:58:42.333Z,98798.97
2022-10-08T06:00:04.084Z,98802.63
2022-10-08T06:22:35.911Z,98810.84
2022-10-08T06:23:54.082Z,98818.59
2022-10-08T06:25:21.400Z,98815.88
2022-10-08T06:26:40.826Z,98816.31
2022-10-08T06:28:00.187Z,98815.31
2022-10-08T06:29:21.027Z,98817.88
2022-10-08T06:33:42.511Z,98815.19
2022-10-08T06:35:09.060Z,98812.44
2022-10-08T06:38:31.900Z,98812.69
2022-10-08T06:40:29.481Z,98813.94
2022-10-08T06:41:36.728Z,98810.84
2022-10-08T06:42:41.398Z,98808.91
2022-10-08T06:43:47.900Z,98808.88
2022-10-08T06:45:42.194Z,98807.84
2022-10-08T06:46:46.657Z,98808.19
2022-10-08T06:48:07.939Z,98805.09
2022-10-08T06:49:22.740Z,98804.03
2022-10-08T06:50:33.965Z,98799.91
2022-10-08T06:52:07.801Z,98800.22
2022-10-08T06:53:11.807Z,98806.25
2022-10-08T06:54:20.675Z,98807.00
2022-10-08T06:55:34.821Z,98802.31
2022-10-08T06:56:46.268Z,98805.97
2022-10-08T06:57:50.080Z,98803.72
2022-10-08T06:58:55.234Z,98806.75
2022-10-08T06:59:59.717Z,98809.25
2022-10-08T07:01:11.695Z,98817.50
2022-10-08T07:02:15.662Z,98811.63
2022-10-08T07:03:20.298Z,98816.09
2022-10-08T07:04:24.982Z,98812.88
2022-10-08T07:05:29.487Z,98807.66
2022-10-08T07:06:34.616Z,98815.91
2022-10-08T07:07:38.530Z,98813.81
2022-10-08T07:08:43.191Z,98809.38
2022-10-08T07:09:47.161Z,98806.91
2022-10-08T07:10:52.488Z,98813.28
2022-10-08T07:12:01.590Z,98808.13
2022-10-08T07:13:05.088Z,98813.84
2022-10-08T07:14:09.596Z,98819.25
2022-10-08T07:15:13.299Z,98813.19
2022-10-08T07:16:39.302Z,98809.56
2022-10-08T07:17:42.818Z,98814.53
2022-10-08T07:18:48.092Z,98815.56
2022-10-08T07:19:51.507Z,98809.66
2022-10-08T07:20:57.337Z,98814.00
2022-10-08T07:22:01.980Z,98813.91
2022-10-08T07:23:05.354Z,98811.16
2022-10-08T07:24:09.922Z,98811.19
2022-10-08T07:25:13.366Z,98815.22
2022-10-08T07:26:19.444Z,98807.03
2022-10-08T07:27:24.511Z,98813.00
2022-10-08T07:28:31.801Z,98804.81
2022-10-08T07:29:35.608Z,98809.47
2022-10-08T07:30:40.550Z,98800.94
2022-10-08T07:31:44.731Z,98804.72
2022-10-08T07:32:54.356Z,98810.66
2022-10-08T07:33:58.143Z,98806.56
2022-10-08T07:35:02.925Z,98807.56
2022-10-08T07:36:09.240Z,98801.81
2022-10-08T07:37:17.731Z,98810.84
2022-10-08T07:38:32.000Z,98797.50
2022-10-08T07:39:39.788Z,98800.31
2022-10-08T07:40:54.814Z,98803.09
2022-10-08T07:41:59.719Z,98790.09
2022-10-08T07:43:05.410Z,98795.03
2022-10-08T07:44:12.319Z,98793.06
2022-10-08T07:45:15.570Z,98793.88
2022-10-08T07:46:20.107Z,98786.31
2022-10-08T07:47:26.822Z,98788.94
2022-10-08T07:48:34.613Z,98787.28
2022-10-08T07:49:37.849Z,98786.31
2022-10-08T07:50:42.041Z,98791.25
2022-10-08T07:51:46.877Z,98787.47
2022-10-08T07:52:50.298Z,98777.88
2022-10-08T07:53:57.684Z,98787.28
2022-10-08T07:55:03.462Z,98784.97
2022-10-08T07:56:08.671Z,98789.41
2022-10-08T07:57:11.880Z,98788.44
2022-10-08T07:58:17.761Z,98782.19
2022-10-08T07:59:22.350Z,98788.28
2022-10-08T08:00:26.565Z,98781.19
2022-10-08T08:01:30.701Z,98788.09
2022-10-08T08:02:34.965Z,98783.47
2022-10-08T08:03:41.512Z,98788.75
2022-10-08T08:04:46.657Z,98785.28
2022-10-08T08:05:49.794Z,98789.44
2022-10-08T08:06:54.177Z,98786.44
2022-10-08T08:07:57.211Z,98780.19
2022-10-08T08:09:02.710Z,98785.13
2022-10-08T08:10:06.999Z,98776.06
2022-10-08T08:11:12.669Z,98785.47
2022-10-08T08:12:15.791Z,98779.88
2022-10-08T08:13:21.436Z,98782.34
2022-10-08T08:14:24.698Z,98778.38
2022-10-08T08:15:28.818Z,98769.16
2022-10-08T08:16:33.590Z,98772.25
2022-10-08T08:17:39.900Z,98780.50
2022-10-08T08:18:46.209Z,98769.78
2022-10-08T08:19:50.475Z,98782.81
2022-10-08T08:21:00.388Z,98782.47
2022-10-08T08:22:03.869Z,98780.97
2022-10-08T08:23:08.396Z,98771.88
2022-10-08T08:24:12.990Z,98776.84
2022-10-08T08:25:17.479Z,98780.28
2022-10-08T08:26:22.317Z,98782.75
2022-10-08T08:27:27.014Z,98782.41
2022-10-08T08:28:31.808Z,98784.38
2022-10-08T08:29:38.550Z,98788.47
2022-10-08T08:30:41.678Z,98777.78
2022-10-08T08:31:47.016Z,98790.47
2022-10-08T08:32:53.280Z,98788.28
2022-10-08T08:34:00.260Z,98777.22
2022-10-08T08:35:04.721Z,98780.81
2022-10-08T08:36:08.214Z,98784.22
2022-10-08T08:37:12.690Z,98781.91
2022-10-08T08:38:16.178Z,98788.31
2022-10-08T08:39:22.173Z,98778.75
2022-10-08T08:40:27.930Z,98780.50
2022-10-08T08:41:43.670Z,98785.06
2022-10-08T08:42:52.569Z,98779.75
2022-10-08T08:44:00.259Z,98771.94
2022-10-08T08:45:22.924Z,98776.88
2022-10-08T08:46:41.254Z,98780.53
2022-10-08T08:47:51.387Z,98780.34
2022-10-08T08:48:56.808Z,98775.69
2022-10-08T08:50:03.410Z,98776.19
2022-10-08T08:51:06.410Z,98776.00
2022-10-08T08:52:11.680Z,98779.31
2022-10-08T08:53:14.870Z,98777.28
2022-10-08T08:54:18.848Z,98774.47
2022-10-08T08:55:29.851Z,98783.88
2022-10-08T08:56:35.530Z,98780.22
2022-10-08T08:58:23.992Z,98780.50
2022-10-08T08:59:32.739Z,98776.53
2022-10-08T09:00:38.309Z,98778.16
2022-10-08T09:01:44.796Z,98782.25
2022-10-08T09:02:53.510Z,98779.09
2022-10-08T09:04:00.926Z,98779.03
2022-10-08T09:05:09.185Z,98785.09
2022-10-08T09:06:18.511Z,98776.44
2022-10-08T09:07:26.428Z,98782.66
2022-10-08T09:08:40.499Z,98779.75
2022-10-08T09:09:55.112Z,98779.97
2022-10-08T09:11:01.829Z,98778.59
2022-10-08T09:12:19.875Z,98769.53
2022-10-08T09:13:27.299Z,98775.09
2022-10-08T09:14:36.359Z,98767.97
2022-10-08T09:15:40.717Z,98777.06
2022-10-08T09:16:44.015Z,98770.38
2022-10-08T09:17:51.915Z,98770.19
2022-10-08T09:18:55.031Z,98776.31
2022-10-08T09:19:59.479Z,98774.66
2022-10-08T09:21:03.708Z,98768.91
2022-10-08T09:22:18.831Z,98771.94
2022-10-08T09:23:24.548Z,98765.38
2022-10-08T09:24:29.986Z,98768.38
2022-10-08T09:25:38.269Z,98764.50
2022-10-08T09:26:41.950Z,98759.75
2022-10-08T09:27:47.902Z,98771.53
2022-10-08T09:28:53.470Z,98766.22
2022-10-08T09:29:57.887Z,98765.22
2022-10-08T09:31:20.077Z,98765.31
2022-10-08T09:32:23.439Z,98764.91
2022-10-08T09:33:32.390Z,98760.09
2022-10-08T09:34:35.627Z,98762.38
2022-10-08T09:35:44.405Z,98762.63
2022-10-08T09:36:49.650Z,98758.31
2022-10-08T09:38:02.124Z,98760.97
2022-10-08T09:39:18.429Z,98759.59
2022-10-08T09:40:23.066Z,98755.00
2022-10-08T09:41:29.278Z,98757.13
2022-10-08T09:42:32.371Z,98760.50
2022-10-08T09:43:36.928Z,98760.75
2022-10-08T09:44:41.226Z,98766.66
2022-10-08T09:45:48.600Z,98758.34
2022-10-08T09:47:05.930Z,98757.31
2022-10-08T09:48:22.030Z,98759.78
2022-10-08T09:49:31.481Z,98759.97
2022-10-08T09:50:35.730Z,98763.25
2022-10-08T09:51:43.139Z,98767.16
2022-10-08T09:52:48.140Z,98762.66
2022-10-08T09:53:54.693Z,98758.38
2022-10-08T09:55:01.148Z,98756.91
2022-10-08T09:56:07.249Z,98764.06
2022-10-08T09:57:16.813Z,98759.78
2022-10-08T09:58:20.289Z,98761.00
2022-10-08T09:59:27.500Z,98754.66
2022-10-08T10:00:33.280Z,98758.75
2022-10-08T10:01:46.698Z,98759.19
2022-10-08T10:02:55.076Z,98760.84
2022-10-08T10:03:59.328Z,98758.19
2022-10-08T10:05:05.509Z,98758.84
2022-10-08T10:06:08.560Z,98757.63
2022-10-08T10:07:12.561Z,98754.16
2022-10-08T10:08:47.228Z,98749.66
2022-10-08T10:09:53.568Z,98747.81
2022-10-08T10:10:56.699Z,98755.88
2022-10-08T10:12:04.640Z,98752.47
2022-10-08T10:13:11.285Z,98753.88
2022-10-08T10:14:22.077Z,98756.31
2022-10-08T10:15:31.937Z,98758.88
2022-10-08T10:16:42.454Z,98756.59
2022-10-08T10:17:51.236Z,98751.13
2022-10-08T10:18:58.080Z,98757.69
2022-10-08T10:20:05.270Z,98748.75
2022-10-08T10:21:13.485Z,98756.69
2022-10-08T10:22:20.636Z,98753.22
2022-10-08T10:23:28.889Z,98750.56
2022-10-08T10:24:40.162Z,98749.56
2022-10-08T10:25:49.128Z,98740.09
2022-10-08T10:26:56.509Z,98741.59
2022-10-08T10:28:03.248Z,98741.03
2022-10-08T10:29:10.051Z,98745.56
2022-10-08T10:30:19.815Z,98736.00
2022-10-08T10:31:27.254Z,98737.50
2022-10-08T10:32:36.850Z,98743.03
2022-10-08T10:33:43.245Z,98735.50
2022-10-08T10:34:51.521Z,98740.41
2022-10-08T10:35:59.580Z,98745.97
2022-10-08T10:37:06.617Z,98737.22
2022-10-08T10:38:15.428Z,98736.66
2022-10-08T10:39:27.814Z,98735.50
2022-10-08T10:40:34.049Z,98735.13
2022-10-08T10:41:39.499Z,98730.06
2022-10-08T10:42:48.536Z,98734.78
2022-10-08T10:43:53.859Z,98730.53
2022-10-08T10:44:59.679Z,98731.13
2022-10-08T10:46:14.118Z,98727.44
2022-10-08T10:47:19.397Z,98731.78
2022-10-08T10:48:25.092Z,98727.28
2022-10-08T10:49:36.539Z,98726.41
2022-10-08T10:50:45.627Z,98728.66
2022-10-08T10:51:58.737Z,98727.16
2022-10-08T10:53:11.026Z,98729.16
2022-10-08T10:54:36.179Z,98723.81
2022-10-08T10:55:45.191Z,98724.03
2022-10-08T10:56:54.680Z,98715.25
2022-10-08T10:58:14.311Z,98725.88
2022-10-08T10:59:38.500Z,98717.69
2022-10-08T11:00:49.316Z,98701.34
2022-10-08T11:01:58.413Z,98714.03
2022-10-08T11:03:10.236Z,98716.91
2022-10-08T11:04:21.148Z,98713.88
2022-10-08T11:05:27.487Z,98713.31
2022-10-08T11:07:09.441Z,98705.16
2022-10-08T11:08:25.681Z,98704.13
2022-10-08T11:09:38.459Z,98710.69
2022-10-08T11:10:52.448Z,98708.28
2022-10-08T11:12:06.156Z,98709.56
2022-10-08T11:13:19.434Z,98694.44
2022-10-08T11:14:44.999Z,98705.31
2022-10-08T11:15:54.353Z,98710.19
2022-10-08T11:17:05.618Z,98701.19
2022-10-08T11:18:16.837Z,98697.91
2022-10-08T11:19:33.461Z,98699.13
2022-10-08T11:20:46.619Z,98697.88
2022-10-08T11:21:58.848Z,98698.47
2022-10-08T11:23:08.628Z,98697.44
2022-10-08T11:24:26.580Z,98690.91
2022-10-08T11:25:49.448Z,98699.03
2022-10-08T11:27:03.042Z,98700.19
2022-10-08T11:28:17.367Z,98693.22
2022-10-08T11:29:26.407Z,98691.97
2022-10-08T11:30:39.231Z,98693.38
2022-10-08T11:31:43.611Z,98688.88
2022-10-08T11:32:52.156Z,98687.44
2022-10-08T11:33:56.063Z,98691.13
2022-10-08T11:35:09.414Z,98685.97
2022-10-08T11:36:20.313Z,98687.63
2022-10-08T11:37:27.559Z,98687.63
2022-10-08T11:38:38.070Z,98678.66
2022-10-08T11:39:47.363Z,98683.75
2022-10-08T11:40:57.551Z,98680.50
2022-10-08T11:42:08.012Z,98683.31
2022-10-08T11:43:14.011Z,98682.13
2022-10-08T11:44:21.964Z,98676.03
2022-10-08T11:45:37.827Z,98672.78
2022-10-08T11:46:41.119Z,98673.81
2022-10-08T11:47:53.311Z,98676.47
2022-10-08T11:48:58.321Z,98667.84
2022-10-08T11:50:05.737Z,98660.31
2022-10-08T11:51:35.081Z,98663.34
2022-10-08T11:52:39.880Z,98666.16
2022-10-08T11:53:42.943Z,98665.75
2022-10-08T11:54:55.351Z,98660.00
2022-10-08T11:55:59.691Z,98654.69
2022-10-08T11:57:17.712Z,98655.16
2022-10-08T11:58:24.428Z,98657.44
2022-10-08T11:59:39.940Z,98654.41
2022-10-08T12:00:44.473Z,98649.31
2022-10-08T12:01:53.229Z,98659.16
2022-10-08T12:02:58.120Z,98651.63
2022-10-08T12:04:05.158Z,98652.06
2022-10-08T12:05:34.159Z,98643.88
2022-10-08T12:06:37.169Z,98649.00
2022-10-08T12:07:41.461Z,98650.84
2022-10-08T12:08:57.910Z,98645.31
2022-10-08T12:10:33.810Z,98652.44
2022-10-08T12:11:56.948Z,98646.03
2022-10-08T12:13:27.690Z,98649.69
2022-10-08T12:14:49.834Z,98644.31
2022-10-08T12:16:06.979Z,98644.31
2022-10-08T12:17:12.230Z,98641.66
2022-10-08T12:18:53.162Z,98638.78
2022-10-08T12:20:12.969Z,98636.31
2022-10-08T12:21:49.793Z,98636.66
2022-10-08T12:23:05.163Z,98640.69
2022-10-08T12:24:49.589Z,98639.44
2022-10-08T12:26:18.367Z,98641.22
2022-10-08T12:27:41.370Z,98640.34
2022-10-08T12:28:50.831Z,98636.44
2022-10-08T12:29:55.587Z,98642.66
2022-10-08T12:31:02.578Z,98636.56
2022-10-08T12:32:06.494Z,98643.72
2022-10-08T12:33:11.078Z,98638.41
2022-10-08T12:34:17.369Z,98637.81
2022-10-08T12:35:27.468Z,98636.56
2022-10-08T12:36:53.897Z,98636.66
2022-10-08T12:38:27.418Z,98626.03
2022-10-08T12:39:36.582Z,98638.06
2022-10-08T12:40:43.708Z,98636.84
2022-10-08T12:41:55.441Z,98632.28
2022-10-08T12:43:09.790Z,98632.66
2022-10-08T12:44:23.190Z,98628.69
2022-10-08T12:45:31.031Z,98628.91
2022-10-08T12:46:40.278Z,98627.84
2022-10-08T12:47:49.573Z,98627.56
2022-10-08T12:48:56.705Z,98620.16
2022-10-08T12:50:06.313Z,98626.56
2022-10-08T12:51:22.442Z,98618.31
2022-10-08T12:52:28.355Z,98621.44
2022-10-08T12:53:31.769Z,98627.97
2022-10-08T12:54:36.281Z,98614.06
2022-10-08T12:55:45.621Z,98615.31
2022-10-08T12:56:50.597Z,98617.72
2022-10-08T12:57:53.880Z,98610.34
2022-10-08T12:58:59.921Z,98611.88
2022-10-08T13:00:08.614Z,98623.25
2022-10-08T13:01:15.587Z,98619.44
2022-10-08T13:02:37.251Z,98615.44
2022-10-08T13:03:40.486Z,98624.41
2022-10-08T13:04:48.093Z,98614.16
2022-10-08T13:05:53.696Z,98621.31
2022-10-08T13:06:58.409Z,98616.16
2022-10-08T13:08:33.799Z,98611.78
2022-10-08T13:09:40.138Z,98613.81
2022-10-08T13:10:43.350Z,98617.91
2022-10-08T13:11:52.148Z,98621.16
2022-10-08T13:13:03.089Z,98615.44
2022-10-08T13:14:07.343Z,98621.41
2022-10-08T13:15:24.040Z,98617.56
2022-10-08T13:16:29.106Z,98615.91
2022-10-08T13:17:34.128Z,98612.25
2022-10-08T13:18:42.596Z,98616.31
2022-10-08T13:19:50.637Z,98615.09
2022-10-08T13:20:59.350Z,98615.09
2022-10-08T13:22:08.206Z,98611.44
2022-10-08T13:23:25.095Z,98615.50
2022-10-08T13:24:35.659Z,98614.03
2022-10-08T13:25:41.669Z,98615.44
2022-10-08T13:26:48.257Z,98615.91
2022-10-08T13:28:10.328Z,98617.13
2022-10-08T13:29:32.131Z,98621.47
2022-10-08T13:30:40.358Z,98623.34
2022-10-08T13:31:44.682Z,98616.41
2022-10-08T13:32:49.008Z,98619.72
2022-10-08T13:33:52.301Z,98620.94
2022-10-08T13:35:05.286Z,98617.88
2022-10-08T13:36:24.772Z,98612.59
2022-10-08T13:37:33.240Z,98615.09
2022-10-08T13:38:36.991Z,98619.84
2022-10-08T13:39:42.835Z,98619.22
2022-10-08T13:40:51.278Z,98613.28
2022-10-08T13:41:58.363Z,98621.09
2022-10-08T13:43:01.783Z,98620.34
2022-10-08T13:44:06.811Z,98616.88
2022-10-08T13:45:16.259Z,98623.50
2022-10-08T13:46:20.322Z,98624.75
2022-10-08T13:47:23.582Z,98625.00
2022-10-08T13:48:27.836Z,98623.78
2022-10-08T13:49:32.888Z,98627.13
2022-10-08T13:50:36.909Z,98632.03
2022-10-08T13:51:41.034Z,98627.19
2022-10-08T13:52:47.319Z,98621.28
2022-10-08T13:53:56.250Z,98625.09
2022-10-08T13:55:13.296Z,98625.94
2022-10-08T13:56:21.387Z,98629.41
2022-10-08T13:57:25.396Z,98621.44
2022-10-08T13:58:38.474Z,98627.13
2022-10-08T13:59:47.912Z,98617.25
2022-10-08T14:00:51.024Z,98625.78
2022-10-08T14:01:55.194Z,98621.09
2022-10-08T14:02:58.293Z,98623.34
2022-10-08T14:04:02.453Z,98619.66
2022-10-08T14:05:07.140Z,98624.97
2022-10-08T14:06:10.108Z,98623.34
2022-10-08T14:07:23.071Z,98610.25
2022-10-08T14:08:29.131Z,98618.44
2022-10-08T14:09:33.283Z,98619.66
2022-10-08T14:10:36.227Z,98616.41
2022-10-08T14:11:43.448Z,98613.56
2022-10-08T14:12:46.483Z,98614.22
2022-10-08T14:13:50.476Z,98609.88
2022-10-08T14:14:53.810Z,98617.03
2022-10-08T14:15:57.932Z,98611.72
2022-10-08T14:17:00.958Z,98612.38
2022-10-08T14:18:05.050Z,98614.03
2022-10-08T14:19:12.013Z,98610.75
2022-10-08T14:20:16.599Z,98609.34
2022-10-08T14:21:19.728Z,98613.84
2022-10-08T14:22:23.860Z,98613.63
2022-10-08T14:23:26.808Z,98621.00
2022-10-08T14:24:30.840Z,98619.38
2022-10-08T14:25:33.781Z,98617.13
2022-10-08T14:26:37.739Z,98616.53
2022-10-08T14:27:42.089Z,98613.88
2022-10-08T14:28:46.181Z,98619.41
2022-10-08T14:29:49.194Z,98619.59
2022-10-08T14:30:53.342Z,98617.97
2022-10-08T14:31:57.342Z,98613.47
2022-10-08T14:33:00.288Z,98614.91
2022-10-08T14:34:04.470Z,98615.13
2022-10-08T14:35:08.198Z,98613.69
2022-10-08T14:36:16.911Z,98615.28
2022-10-08T14:37:19.960Z,98619.59
2022-10-08T14:38:24.848Z,98618.59
2022-10-08T14:39:28.230Z,98620.22
2022-10-08T14:40:32.352Z,98611.22
2022-10-08T14:41:35.281Z,98618.78
2022-10-08T14:42:39.298Z,98618.94
2022-10-08T14:43:43.901Z,98618.13
2022-10-08T14:44:48.338Z,98603.41
2022-10-08T14:45:51.404Z,98611.91
2022-10-08T14:46:55.484Z,98607.38
2022-10-08T14:47:58.442Z,98605.72
2022-10-08T14:49:02.909Z,98607.88
2022-10-08T14:50:07.165Z,98611.31
2022-10-08T14:51:12.629Z,98614.09
2022-10-08T14:52:15.690Z,98605.50
2022-10-08T14:53:19.730Z,98610.31
2022-10-08T14:54:23.834Z,98607.19
2022-10-08T14:55:26.860Z,98605.69
2022-10-08T14:56:30.888Z,98611.56
2022-10-08T14:57:34.928Z,98605.41
2022-10-08T14:58:37.866Z,98602.91
2022-10-08T14:59:43.382Z,98610.16
2022-10-08T15:00:46.297Z,98605.00
2022-10-08T15:01:50.614Z,98600.84
2022-10-08T15:02:53.663Z,98600.16
2022-10-08T15:03:57.871Z,98603.75
2022-10-08T15:05:01.910Z,98601.03
2022-10-08T15:06:06.298Z,98607.06
2022-10-08T15:07:10.397Z,98599.88
2022-10-08T15:08:14.022Z,98603.28
2022-10-08T15:09:18.115Z,98601.84
2022-10-08T15:10:21.612Z,98608.53
2022-10-08T15:11:25.858Z,98605.78
2022-10-08T15:12:28.944Z,98604.09
2022-10-08T15:13:33.205Z,98599.09
2022-10-08T15:14:38.328Z,98612.63
2022-10-08T15:15:44.795Z,98609.44
2022-10-08T15:16:49.058Z,98619.47
2022-10-08T15:17:54.251Z,98617.75
2022-10-08T15:18:59.022Z,98612.53
2022-10-08T15:20:02.283Z,98621.38
2022-10-08T15:21:07.422Z,98620.44
2022-10-08T15:22:10.633Z,98613.25
2022-10-08T15:23:15.421Z,98625.19
2022-10-08T15:24:18.531Z,98620.63
2022-10-08T15:25:22.647Z,98617.72
2022-10-08T15:26:25.610Z,98620.25
2022-10-08T15:27:29.750Z,98619.78
2022-10-08T15:28:33.290Z,98621.16
2022-10-08T15:29:37.714Z,98622.53
2022-10-08T15:30:41.168Z,98620.22
2022-10-08T15:31:46.750Z,98622.25
2022-10-08T15:32:49.987Z,98619.13
2022-10-08T15:33:56.321Z,98622.31
2022-10-08T15:34:59.446Z,98627.78
2022-10-08T15:36:03.351Z,98627.28
2022-10-08T15:37:08.211Z,98618.06
2022-10-08T15:38:12.248Z,98626.38
2022-10-08T15:39:16.918Z,98623.88
2022-10-08T15:40:21.517Z,98628.69
2022-10-08T15:41:25.642Z,98621.94
2022-10-08T15:42:29.865Z,98623.13
2022-10-08T15:43:34.289Z,98622.47
2022-10-08T15:44:38.689Z,98626.47
2022-10-08T15:45:42.904Z,98631.28
2022-10-08T15:46:48.957Z,98631.63
2022-10-08T15:47:51.992Z,98638.28
2022-10-08T15:48:57.328Z,98633.50
2022-10-08T15:50:00.332Z,98641.78
2022-10-08T15:51:05.145Z,98635.19
2022-10-08T15:52:14.819Z,98640.00
2022-10-08T15:53:17.938Z,98638.88
2022-10-08T15:54:22.261Z,98635.59
2022-10-08T15:55:25.590Z,98639.22
2022-10-08T15:56:30.017Z,98636.09
2022-10-08T15:57:33.035Z,98633.00
2022-10-08T15:58:52.951Z,98632.34
2022-10-08T15:59:58.497Z,98635.50
2022-10-08T16:01:06.209Z,98635.69
2022-10-08T16:02:17.137Z,98636.03
2022-10-08T16:03:20.960Z,98641.66
2022-10-08T16:04:25.041Z,98631.25
2022-10-08T16:05:29.139Z,98632.44
2022-10-08T16:06:34.572Z,98637.06
2022-10-08T16:07:38.585Z,98639.03
2022-10-08T16:08:41.899Z,98638.41
2022-10-08T16:09:46.051Z,98652.59
2022-10-08T16:10:48.959Z,98646.66
2022-10-08T16:11:53.366Z,98649.66
2022-10-08T16:12:57.359Z,98649.97
2022-10-08T16:14:01.719Z,98641.44
2022-10-08T16:15:06.340Z,98642.75
2022-10-08T16:16:14.806Z,98649.34
2022-10-08T16:17:20.509Z,98649.00
2022-10-08T16:18:23.549Z,98650.19
2022-10-08T16:19:28.511Z,98649.69
2022-10-08T16:20:31.489Z,98649.03
2022-10-08T16:21:37.431Z,98655.47
2022-10-08T16:22:41.411Z,98657.63
2022-10-08T16:23:44.451Z,98657.97
2022-10-08T16:24:48.390Z,98657.31
2022-10-08T16:25:51.479Z,98653.34
2022-10-08T16:26:56.920Z,98651.06
2022-10-08T16:27:59.908Z,98651.25
2022-10-08T16:29:06.099Z,98653.38
2022-10-08T16:30:10.651Z,98662.44
2022-10-08T16:31:13.880Z,98659.34
2022-10-08T16:32:19.308Z,98659.66
2022-10-08T16:33:22.361Z,98663.47
2022-10-08T16:34:27.312Z,98661.97
2022-10-08T16:35:30.320Z,98662.31
2022-10-08T16:36:36.679Z,98663.47
2022-10-08T16:37:39.627Z,98660.19
2022-10-08T16:38:43.649Z,98659.69
2022-10-08T16:39:47.575Z,98659.03
2022-10-08T16:40:51.558Z,98664.63
2022-10-08T16:41:55.579Z,98669.38
2022-10-08T16:42:58.531Z,98674.31
2022-10-08T16:44:11.777Z,98672.53
2022-10-08T16:45:16.640Z,98681.09
2022-10-08T16:46:21.864Z,98683.53
2022-10-08T16:47:27.329Z,98679.09
2022-10-08T16:48:30.361Z,98684.16
2022-10-08T16:49:34.403Z,98685.66
2022-10-08T16:50:39.260Z,98685.31
2022-10-08T16:51:43.347Z,98680.66
2022-10-08T16:52:46.596Z,98689.88
2022-10-08T16:53:51.590Z,98691.19
2022-10-08T16:54:56.310Z,98697.91
2022-10-08T16:56:02.615Z,98697.72
2022-10-08T16:57:06.559Z,98702.63
2022-10-08T16:58:09.490Z,98696.06
2022-10-08T16:59:15.424Z,98697.34
2022-10-08T17:00:19.613Z,98694.22
2022-10-08T17:01:22.859Z,98695.38
2022-10-08T17:02:28.668Z,98693.84
2022-10-08T17:03:31.671Z,98704.53
2022-10-08T17:04:39.692Z,98707.34
2022-10-08T17:05:42.688Z,98701.72
2022-10-08T17:06:47.190Z,98711.72
2022-10-08T17:07:50.106Z,98706.13
2022-10-08T17:08:54.582Z,98708.09
2022-10-08T17:09:57.518Z,98705.94
2022-10-08T17:11:05.503Z,98711.31
2022-10-08T17:12:09.528Z,98710.00
2022-10-08T17:13:12.501Z,98710.31
2022-10-08T17:14:16.507Z,98717.53
2022-10-08T17:15:19.425Z,98715.88
2022-10-08T17:16:25.064Z,98714.38
2022-10-08T17:17:30.482Z,98709.28
2022-10-08T17:18:33.751Z,98716.31
2022-10-08T17:19:37.884Z,98719.81
2022-10-08T17:20:41.500Z,98718.28
2022-10-08T17:21:45.750Z,98713.22
2022-10-08T17:22:48.850Z,98716.13
2022-10-08T17:23:53.298Z,98725.00
2022-10-08T17:24:56.267Z,98726.28
2022-10-08T17:26:00.888Z,98727.53
2022-10-08T17:27:05.099Z,98722.75
2022-10-08T17:28:08.173Z,98719.59
2022-10-08T17:29:13.241Z,98724.50
2022-10-08T17:30:16.401Z,98730.22
2022-10-08T17:31:22.726Z,98732.31
2022-10-08T17:32:26.808Z,98737.34
2022-10-08T17:33:35.467Z,98729.94
2022-10-08T17:34:40.009Z,98727.75
2022-10-08T17:35:42.972Z,98723.63
2022-10-08T17:36:47.461Z,98733.44
2022-10-08T17:37:50.470Z,98728.34
2022-10-08T17:38:56.328Z,98726.88
2022-10-08T17:40:00.305Z,98729.78
2022-10-08T17:41:10.538Z,98728.16
2022-10-08T17:42:14.588Z,98726.50
2022-10-08T17:43:17.605Z,98730.25
2022-10-08T17:44:22.074Z,98725.28
2022-10-08T17:45:25.036Z,98730.69
2022-10-08T17:46:30.975Z,98727.41
2022-10-08T17:47:33.978Z,98727.84
2022-10-08T17:48:40.003Z,98729.94
2022-10-08T17:49:44.015Z,98722.38
2022-10-08T17:50:46.938Z,98728.72
2022-10-08T17:51:51.318Z,98738.56
2022-10-08T17:52:54.309Z,98739.53
2022-10-08T17:54:00.040Z,98737.22
2022-10-08T17:55:02.973Z,98739.16
2022-10-08T17:56:10.027Z,98735.84
2022-10-08T17:57:14.141Z,98745.69
2022-10-08T17:58:17.048Z,98737.00
2022-10-08T17:59:22.921Z,98739.06
2022-10-08T18:00:26.261Z,98740.06
2022-10-08T18:01:32.264Z,98740.19
2022-10-08T18:02:35.322Z,98749.19
2022-10-08T18:03:41.948Z,98746.84
2022-10-08T18:04:46.050Z,98744.38
2022-10-08T18:05:56.751Z,98755.03
2022-10-08T18:07:03.473Z,98745.78
2022-10-08T18:08:06.752Z,98741.69
2022-10-08T18:09:14.493Z,98744.31
2022-10-08T18:10:18.542Z,98739.34
2022-10-08T18:11:22.636Z,98746.53
2022-10-08T18:12:25.601Z,98744.88
2022-10-08T18:13:29.611Z,98746.00
2022-10-08T18:14:32.699Z,98743.53
2022-10-08T18:15:38.498Z,98740.91
2022-10-08T18:16:45.588Z,98752.34
2022-10-08T18:17:51.798Z,98749.72
2022-10-08T18:18:56.318Z,98748.06
2022-10-08T18:20:00.748Z,98742.97
2022-10-08T18:21:06.146Z,98747.41
2022-10-08T18:22:11.881Z,98743.25
2022-10-08T18:23:19.436Z,98750.44
2022-10-08T18:24:30.196Z,98747.00
2022-10-08T18:25:33.232Z,98747.00
2022-10-08T18:26:37.308Z,98746.81
2022-10-08T18:27:40.212Z,98749.59
2022-10-08T18:28:44.454Z,98757.47
2022-10-08T18:29:47.399Z,98756.78
2022-10-08T18:30:51.513Z,98755.94
2022-10-08T18:31:54.561Z,98761.34
2022-10-08T18:32:58.483Z,98748.50
2022-10-08T18:34:05.484Z,98759.16
2022-10-08T18:35:11.413Z,98760.13
2022-10-08T18:36:16.729Z,98767.28
2022-10-08T18:37:21.154Z,98762.22
2022-10-08T18:38:24.169Z,98764.00
2022-10-08T18:39:28.873Z,98756.13
2022-10-08T18:40:32.041Z,98758.50
2022-10-08T18:41:38.897Z,98754.72
2022-10-08T18:42:42.938Z,98759.00
2022-10-08T18:43:46.538Z,98770.19
2022-10-08T18:44:50.492Z,98768.25
2022-10-08T18:45:53.553Z,98763.69
2022-10-08T18:47:01.730Z,98760.91
2022-10-08T18:48:08.060Z,98766.75
2022-10-08T18:49:14.911Z,98762.16
2022-10-08T18:50:17.900Z,98766.44
2022-10-08T18:51:23.858Z,98757.47
2022-10-08T18:52:27.439Z,98764.34
2022-10-08T18:53:33.310Z,98765.84
2022-10-08T18:54:37.628Z,98763.22
2022-10-08T18:55:40.618Z,98755.34
2022-10-08T18:56:44.585Z,98772.75
2022-10-08T18:57:48.678Z,98766.66
2022-10-08T18:58:53.108Z,98770.25